Calhoun, GA (30701)

7:37 PM EDT on September 01, 2014 (GMT -0400)
The Villages of Calhoun | Change Station
CLOSE
Current Station
Personal Weather Station
Location: Calhoun, GA
Elevation: 676 ft
Nearby Weather Stations

Elev 676 ft 34.50 °N, 84.93 °W | Updated 8 minutes ago

Partly Cloudy
Partly Cloudy
82.6 °F
Feels Like 88 °F
N
2.0
Wind Variable Wind from WSW
Gusts 7.0 mph

Today
High -- | Low -- °F
--% Chance of Precip.
Yesterday
High -- | Low -- °F
Precip. -- in
7:12 AM 8:05 PM
Waxing Crescent, 45% visible
Pressure 30.05 in
Visibility 10.0 miles
Clouds Scattered Clouds 5500 ft
Heat Index 88 °F
Dew Point 73 °F
Humidity 73%
Rainfall 0.08 in
Snow Depth Not available.
UV 0 out of 12
Pollen 9.80 out of 12
Air Quality Not available.
Flu Activity Not available.
METAR KDNN 012315Z AUTO 00000KT 10SM SCT055 30/21 A3005 RMK AO2 LTG DSNT SE

More Conditions Fewer Conditions

Pressure 30.05 in
Visibility 10.0 miles
Clouds Scattered Clouds 5500 ft
Heat Index 88 °F
Dew Point 73 °F
Humidity 73%
Rainfall 0.08 in
Snow Depth Not available.
UV 0 out of 12
Pollen 9.80 out of 12
Air Quality Not available.
Flu Activity Not available.
METAR KDNN 012315Z AUTO 00000KT 10SM SCT055 30/21 A3005 RMK AO2 LTG DSNT SE

More Conditions Fewer Conditions

10-Day Weather Forecast

Almanac

Astronomy

Sep. 01, 2014 Rise Set
Actual Time 7:12 AM EDT 8:05 PM EDT
Civil Twilight 6:47 AM EDT 8:31 PM EDT
Nautical Twilight 6:16 AM EDT 9:01 PM EDT
Astronomical Twilight 5:45 AM EDT 9:33 PM EDT
Moon 1:40 PM EDT No Moon Set
Length of Visible Light 13h 44m
Length of Day
12h 53m
Tomorrow will be 2m 3s shorter.
Waxing Crescent, 45% of the Moon is Illuminated
Today
Waxing Crescent
Sep 2
First Quarter
Sep 8
Full
Sep 15
Last Quarter
Sep 24
New

Today's Extremes

State Highs State Lows

Community

WunderPhotos

Upload Photos

1,749,440 photos uploaded!

Nearby

Air Quality

  Air Quality AQ Index Pollutant
Monday Moderate
PM2.5
Monday Good
OZONE
Tuesday Moderate
OZONE
Tuesday Moderate
PM2.5

Snow Depth

Station Depth Elevation
No new snow has been reported.

Earthquake Activity

City Distance Mag. Time & Date
No recent earthquake activity has been reported nearby.
Minimum magnitude displayed is 2.5.

Coastal Water Temperatures

Place Temperature
No Stations Reporting

Nearby Weather Stations